Time;durP1;ratioP1;P1;durP2;ratioP2;P2;SDS_P1;SDS_P2;PMS_P1;PMS_P2;Temp;Humidity;BMP_temperature;BMP_pressure;BME280_temperature;BME280_humidity;BME280_pressure;Samples;Min_cycle;Max_cycle;Signal;HPM_P1;HPM_P2
2021/04/05 00:00:44;;;;;;;18.77;12.17;;;;;;;5.56;100.00;100014.47;4971001;28;20222;-72
2021/04/05 00:03:10;;;;;;;18.10;12.53;;;;;;;5.59;100.00;100027.44;4939244;28;20194;-72
2021/04/05 00:05:38;;;;;;;19.07;12.70;;;;;;;5.57;100.00;100011.53;4955602;28;20222;-71
2021/04/05 00:08:06;;;;;;;21.33;13.07;;;;;;;5.62;100.00;99997.28;4956427;28;20933;-71
2021/04/05 00:10:37;;;;;;;17.33;11.83;;;;;;;5.55;100.00;99984.03;4939661;28;20755;-71
2021/04/05 00:13:06;;;;;;;18.33;12.97;;;;;;;5.56;100.00;99976.78;4923418;28;20221;-70
2021/04/05 00:15:32;;;;;;;18.27;12.73;;;;;;;5.49;100.00;99976.97;4939223;28;20265;-71
2021/04/05 00:18:00;;;;;;;18.40;12.93;;;;;;;5.49;100.00;99960.81;4955910;28;20756;-71
2021/04/05 00:20:30;;;;;;;21.37;13.50;;;;;;;5.68;100.00;99964.75;4955859;28;20273;-71
2021/04/05 00:22:56;;;;;;;19.93;13.10;;;;;;;5.60;100.00;99959.81;4955242;28;20178;-70
2021/04/05 00:25:21;;;;;;;17.57;12.60;;;;;;;5.49;100.00;99938.47;4969048;28;20273;-71
2021/04/05 00:27:47;;;;;;;17.70;12.57;;;;;;;5.49;100.00;99920.41;4962612;28;20194;-71
2021/04/05 00:30:19;;;;;;;20.40;12.73;;;;;;;5.46;100.00;99914.78;4979861;28;20293;-71
2021/04/05 00:32:48;;;;;;;18.80;12.27;;;;;;;5.47;100.00;99902.91;4947350;29;20187;-71
2021/04/05 00:35:15;;;;;;;17.57;12.60;;;;;;;5.38;100.00;99894.53;4939977;29;20250;-72
2021/04/05 00:37:43;;;;;;;19.10;13.43;;;;;;;5.45;100.00;99886.22;4924266;29;20282;-71
2021/04/05 00:40:10;;;;;;;19.77;13.60;;;;;;;5.46;100.00;99882.47;4939518;29;20191;-71
2021/04/05 00:42:37;;;;;;;17.33;13.30;;;;;;;5.54;100.00;99865.81;4921668;29;20187;-70
2021/04/05 00:45:09;;;;;;;18.53;13.10;;;;;;;5.57;100.00;99870.69;4936856;29;20238;-71
2021/04/05 00:47:50;;;;;;;19.67;13.13;;;;;;;5.61;100.00;99867.22;4936769;29;20219;-70
2021/04/05 00:50:43;;;;;;;16.60;11.87;;;;;;;5.62;100.00;99855.34;4920419;29;20194;-72
2021/04/05 00:53:09;;;;;;;20.53;13.83;;;;;;;5.51;100.00;99823.22;4935330;29;20378;-70
2021/04/05 00:55:36;;;;;;;21.37;13.47;;;;;;;5.65;100.00;99854.03;4942755;28;20233;-70
2021/04/05 00:58:02;;;;;;;18.17;12.97;;;;;;;5.59;100.00;99815.50;4959955;28;20265;-71
2021/04/05 01:00:41;;;;;;;18.13;13.30;;;;;;;5.66;99.38;99813.38;4964323;28;20226;-71
2021/04/05 01:03:07;;;;;;;18.57;13.00;;;;;;;5.60;100.00;99813.59;4955307;28;20183;-71
2021/04/05 01:05:36;;;;;;;19.07;14.33;;;;;;;5.76;99.42;99811.56;4935430;29;20235;-71
2021/04/05 01:08:11;;;;;;;20.43;14.13;;;;;;;5.76;98.58;99802.69;4920446;29;20187;-71
2021/04/05 01:10:37;;;;;;;19.40;13.50;;;;;;;5.79;98.37;99797.59;4920107;29;20225;-71
2021/04/05 01:13:06;;;;;;;18.53;13.60;;;;;;;5.74;98.31;99787.88;4940343;29;20183;-72
2021/04/05 01:15:32;;;;;;;17.77;13.63;;;;;;;5.74;98.52;99781.38;4935417;29;20314;-70
2021/04/05 01:17:57;;;;;;;21.13;14.27;;;;;;;5.82;98.06;99775.53;4953076;29;20191;-71
2021/04/05 01:20:23;;;;;;;20.73;14.70;;;;;;;5.74;98.37;99763.63;4936537;28;20205;-71
2021/04/05 01:22:52;;;;;;;19.90;14.27;;;;;;;5.83;98.04;99747.50;4921359;29;20179;-71
2021/04/05 01:25:20;;;;;;;17.67;13.30;;;;;;;5.82;98.03;99745.88;4942214;28;20289;-71
2021/04/05 01:27:46;;;;;;;20.00;14.97;;;;;;;5.91;97.53;99738.88;4940650;28;20196;-70
2021/04/05 01:30:27;;;;;;;19.07;15.00;;;;;;;5.87;97.67;99721.63;4959145;28;20194;-71
2021/04/05 01:33:16;;;;;;;22.53;14.53;;;;;;;5.82;98.09;99728.88;4919199;29;20249;-71
2021/04/05 01:35:48;;;;;;;18.53;15.23;;;;;;;5.82;98.29;99710.88;4919967;29;20728;-71
2021/04/05 01:38:15;;;;;;;21.53;13.87;;;;;;;5.82;98.12;99702.78;4920228;29;20195;-72
2021/04/05 01:40:46;;;;;;;17.27;13.53;;;;;;;5.80;98.22;99698.72;4919425;29;20225;-71
2021/04/05 01:43:12;;;;;;;17.77;13.50;;;;;;;5.84;98.11;99681.78;4918703;29;20600;-71
2021/04/05 01:45:37;;;;;;;18.13;13.43;;;;;;;5.84;97.97;99684.47;4934342;29;20230;-70
2021/04/05 01:48:04;;;;;;;17.87;13.83;;;;;;;6.00;97.62;99669.94;4958213;28;20206;-71
2021/04/05 01:50:32;;;;;;;18.43;13.80;;;;;;;5.91;97.73;99678.81;4957857;28;20222;-70
2021/04/05 01:53:04;;;;;;;17.67;12.40;;;;;;;5.87;98.10;99666.94;4953839;28;20214;-70
2021/04/05 01:55:31;;;;;;;16.20;13.30;;;;;;;5.98;97.79;99655.91;4935531;28;20226;-69
2021/04/05 01:57:57;;;;;;;15.97;11.90;;;;;;;6.06;97.34;99649.19;4958542;28;20197;-72
2021/04/05 02:00:24;;;;;;;19.03;12.53;;;;;;;6.12;97.10;99627.38;4930190;28;21044;-70
2021/04/05 02:02:50;;;;;;;17.00;11.73;;;;;;;6.06;97.67;99616.84;4957231;28;20558;-70
2021/04/05 02:05:16;;;;;;;17.23;12.23;;;;;;;6.09;97.46;99627.91;4933801;29;20219;-70
2021/04/05 02:07:41;;;;;;;15.27;11.57;;;;;;;6.13;97.38;99632.50;4935011;29;20183;-72
2021/04/05 02:10:13;;;;;;;17.63;11.30;;;;;;;6.24;97.38;99630.59;4934400;28;20186;-69
2021/04/05 02:12:38;;;;;;;15.00;11.70;;;;;;;6.21;97.58;99604.22;4918135;29;20234;-68
2021/04/05 02:15:08;;;;;;;15.37;10.93;;;;;;;6.25;97.57;99591.81;4933776;29;20289;-70
2021/04/05 02:17:34;;;;;;;14.70;11.00;;;;;;;6.21;97.96;99586.13;4950879;28;20194;-69
2021/04/05 02:20:06;;;;;;;18.13;11.90;;;;;;;6.28;97.81;99580.47;4950630;29;20195;-69
2021/04/05 02:22:38;;;;;;;16.47;11.87;;;;;;;6.31;97.67;99582.63;4933077;29;20346;-69
2021/04/05 02:25:05;;;;;;;17.00;11.30;;;;;;;6.30;97.75;99564.81;4936693;28;20221;-70
2021/04/05 02:27:34;;;;;;;15.93;11.47;;;;;;;6.32;97.78;99573.47;4945933;28;20193;-69
2021/04/05 02:30:02;;;;;;;14.47;11.27;;;;;;;6.46;97.67;99555.63;4949866;28;20191;-70
2021/04/05 02:32:28;;;;;;;16.50;11.30;;;;;;;6.42;97.68;99541.09;4956151;28;20241;-70
2021/04/05 02:34:54;;;;;;;15.53;10.83;;;;;;;6.36;98.05;99536.78;4953930;28;20730;-69
2021/04/05 02:37:20;;;;;;;14.87;10.73;;;;;;;6.37;98.25;99543.78;4969152;28;20954;-70
2021/04/05 02:39:45;;;;;;;17.47;11.03;;;;;;;6.39;98.67;99536.22;4969117;28;20213;-70
2021/04/05 02:42:17;;;;;;;13.87;10.30;;;;;;;6.33;98.85;99540.81;4952784;28;20584;-69
2021/04/05 02:44:46;;;;;;;18.03;12.43;;;;;;;6.39;98.71;99530.84;4953243;28;20604;-69
2021/04/05 02:47:16;;;;;;;14.80;11.43;;;;;;;6.55;98.39;99525.13;4953269;28;20222;-70
2021/04/05 02:49:42;;;;;;;16.23;11.53;;;;;;;6.45;98.70;99518.97;4953513;28;20563;-70
2021/04/05 02:52:08;;;;;;;19.93;12.80;;;;;;;6.45;98.99;99518.97;4952026;28;20269;-69
2021/04/05 02:54:33;;;;;;;16.67;12.33;;;;;;;6.46;99.06;99509.78;4969473;28;20291;-69
2021/04/05 02:56:59;;;;;;;15.23;11.37;;;;;;;6.41;99.57;99501.72;4958931;28;20709;-70
2021/04/05 02:59:24;;;;;;;18.90;12.37;;;;;;;6.35;100.00;99497.41;4934589;28;20186;-70
2021/04/05 03:01:53;;;;;;;14.53;10.93;;;;;;;6.45;99.54;99481.22;4955403;28;20219;-69
2021/04/05 03:04:21;;;;;;;18.23;11.77;;;;;;;6.43;100.00;99456.41;4918651;29;20253;-71
2021/04/05 03:06:48;;;;;;;19.17;11.90;;;;;;;6.41;100.00;99447.78;4933790;28;20705;-69
2021/04/05 03:09:14;;;;;;;17.87;11.60;;;;;;;6.51;100.00;99453.16;4934725;29;20192;-69
2021/04/05 03:11:44;;;;;;;19.37;12.50;;;;;;;6.49;100.00;99461.53;4933110;29;20601;-70
2021/04/05 03:14:12;;;;;;;14.37;10.17;;;;;;;6.51;99.94;99437.78;4934096;29;20257;-69
2021/04/05 03:16:42;;;;;;;14.93;11.67;;;;;;;6.51;99.83;99438.56;4918529;29;20234;-71
2021/04/05 03:19:10;;;;;;;19.13;11.80;;;;;;;6.51;100.00;99415.41;4925787;29;20218;-71
2021/04/05 03:21:39;;;;;;;20.03;12.23;;;;;;;6.43;100.00;99418.66;4933277;29;20227;-69
2021/04/05 03:24:06;;;;;;;17.10;11.90;;;;;;;6.53;100.00;99420.22;4949654;29;20210;-69
2021/04/05 03:26:34;;;;;;;17.33;12.37;;;;;;;6.62;100.00;99413.19;4962238;28;20227;-70
2021/04/05 03:28:59;;;;;;;19.07;12.20;;;;;;;6.57;100.00;99405.13;4956760;28;20183;-70
2021/04/05 03:31:29;;;;;;;19.50;11.83;;;;;;;6.57;100.00;99391.66;4966789;28;20284;-70
2021/04/05 03:34:18;;;;;;;17.17;12.13;;;;;;;6.56;100.00;99381.94;4942802;28;20191;-70
2021/04/05 03:36:52;;;;;;;16.53;11.20;;;;;;;6.51;100.00;99377.66;4952031;28;20261;-70
2021/04/05 03:39:20;;;;;;;20.20;12.30;;;;;;;6.59;100.00;99378.69;4950448;28;20187;-70
2021/04/05 03:42:00;;;;;;;19.10;11.27;;;;;;;6.58;100.00;99374.38;4971464;28;20246;-70
2021/04/05 03:44:36;;;;;;;20.83;12.13;;;;;;;6.66;100.00;99371.06;4957105;28;20222;-70
2021/04/05 03:47:57;;;;;;;18.40;10.03;;;;;;;6.61;100.00;99363.03;4956277;28;20325;-71
2021/04/05 03:50:37;;;;;;;16.63;11.10;;;;;;;6.64;100.00;99343.56;4913159;29;20200;-71
2021/04/05 03:53:07;;;;;;;17.77;11.37;;;;;;;6.68;100.00;99344.63;4951324;28;20229;-71
2021/04/05 03:55:33;;;;;;;20.83;11.60;;;;;;;6.61;100.00;99327.97;4971694;28;20226;-71
2021/04/05 03:58:01;;;;;;;16.87;11.87;;;;;;;6.69;100.00;99319.28;4956202;28;20198;-71
2021/04/05 04:00:28;;;;;;;18.83;12.20;;;;;;;6.71;100.00;99314.41;4938109;28;20191;-70
2021/04/05 04:02:54;;;;;;;20.53;11.67;;;;;;;6.68;100.00;99298.75;4962498;28;20236;-69
2021/04/05 04:08:35;;;;;;;19.57;12.20;;;;;;;6.72;100.00;99299.00;4950080;28;20229;-70
2021/04/05 04:11:07;;;;;;;19.97;12.43;;;;;;;6.74;100.00;99292.28;4975962;28;20239;-70
2021/04/05 04:13:39;;;;;;;17.63;12.57;;;;;;;6.79;100.00;99281.44;4942938;28;20252;-72
2021/04/05 04:16:08;;;;;;;18.83;11.90;;;;;;;6.73;100.00;99279.84;4958053;28;20234;-70
2021/04/05 04:18:36;;;;;;;17.20;12.13;;;;;;;6.67;100.00;99286.38;4940941;28;20237;-70
2021/04/05 04:21:05;;;;;;;20.97;13.07;;;;;;;6.71;100.00;99265.84;4956129;28;20241;-69
2021/04/05 04:23:30;;;;;;;23.03;13.37;;;;;;;6.64;100.00;99259.97;4955063;28;20206;-69
2021/04/05 04:25:56;;;;;;;24.87;14.27;;;;;;;6.57;100.00;99248.72;4938771;28;20747;-70
2021/04/05 04:28:26;;;;;;;26.87;14.63;;;;;;;6.50;100.00;99251.97;4942661;28;20197;-69
2021/04/05 04:31:04;;;;;;;25.27;14.97;;;;;;;6.52;100.00;99256.81;4944854;29;20321;-70
2021/04/05 04:33:31;;;;;;;24.20;16.13;;;;;;;6.39;100.00;99232.38;4951183;28;20194;-72
2021/04/05 04:35:59;;;;;;;24.10;15.10;;;;;;;6.32;100.00;99248.06;4971418;28;20766;-70
2021/04/05 04:38:25;;;;;;;23.50;14.43;;;;;;;6.26;100.00;99251.88;4971675;28;20193;-71
2021/04/05 04:40:51;;;;;;;25.73;16.20;;;;;;;6.30;100.00;99254.78;4987534;28;20261;-68
2021/04/05 04:43:16;;;;;;;26.23;16.10;;;;;;;6.33;100.00;99257.75;4955772;28;20187;-70
2021/04/05 04:45:42;;;;;;;24.33;15.57;;;;;;;6.31;100.00;99237.56;4955962;28;20252;-72
2021/04/05 04:48:08;;;;;;;25.83;17.13;;;;;;;6.19;100.00;99237.06;4989198;28;20554;-70
2021/04/05 04:50:36;;;;;;;25.17;16.23;;;;;;;6.29;100.00;99239.72;4972418;28;20222;-69
2021/04/05 04:53:02;;;;;;;24.20;16.83;;;;;;;6.23;100.00;99225.47;4987253;28;20659;-70
2021/04/05 04:55:30;;;;;;;23.60;16.60;;;;;;;6.21;100.00;99234.94;4952079;28;20257;-69
2021/04/05 04:58:00;;;;;;;27.43;17.83;;;;;;;6.20;100.00;99209.84;4955426;28;20270;-70
2021/04/05 05:00:26;;;;;;;27.93;15.90;;;;;;;6.15;100.00;99217.97;4968057;28;20279;-71
2021/04/05 05:02:52;;;;;;;26.80;18.03;;;;;;;6.17;100.00;99218.50;4958106;28;20650;-71
2021/04/05 05:05:21;;;;;;;28.03;18.43;;;;;;;6.27;100.00;99207.66;4951315;28;20723;-71
2021/04/05 05:07:46;;;;;;;22.93;15.33;;;;;;;6.14;100.00;99194.00;4919699;29;20612;-70
2021/04/05 05:10:12;;;;;;;22.20;16.03;;;;;;;6.14;100.00;99180.53;4935822;29;20183;-71
2021/04/05 05:12:38;;;;;;;24.13;15.97;;;;;;;6.21;100.00;99197.19;4925826;28;20657;-71
2021/04/05 05:15:09;;;;;;;28.43;16.83;;;;;;;6.24;100.00;99183.94;4970686;28;20598;-72
2021/04/05 05:17:40;;;;;;;23.10;16.10;;;;;;;6.21;100.00;99189.13;4939158;28;20231;-71
2021/04/05 05:20:07;;;;;;;26.70;17.30;;;;;;;6.19;100.00;99184.00;4954822;28;20194;-70
2021/04/05 05:22:35;;;;;;;23.57;16.60;;;;;;;6.28;100.00;99185.00;4970268;28;20235;-69
2021/04/05 05:25:03;;;;;;;25.97;17.60;;;;;;;6.26;100.00;99184.50;4975787;28;20280;-70
2021/04/05 05:27:28;;;;;;;21.03;15.50;;;;;;;6.16;100.00;99189.13;4951895;28;20270;-69
2021/04/05 05:29:56;;;;;;;26.30;15.13;;;;;;;6.18;100.00;99189.66;4939026;28;20201;-70
2021/04/05 05:32:21;;;;;;;20.23;13.90;;;;;;;6.16;100.00;99198.03;4958137;28;20230;-70
2021/04/05 05:34:49;;;;;;;17.27;12.30;;;;;;;6.09;100.00;99217.47;4970881;28;20498;-72
2021/04/05 05:37:21;;;;;;;23.37;15.40;;;;;;;5.96;100.00;99256.59;4954135;28;20221;-70
2021/04/05 05:39:49;;;;;;;9.23;7.30;;;;;;;5.38;100.00;99272.69;4964246;28;20719;-68
2021/04/05 05:42:30;;;;;;;4.83;4.20;;;;;;;5.03;100.00;99277.28;4968872;28;20732;-69
2021/04/05 05:45:08;;;;;;;4.93;2.33;;;;;;;4.76;100.00;99285.91;4970571;28;20265;-70
2021/04/05 05:48:04;;;;;;;3.17;1.40;;;;;;;4.47;100.00;99271.38;4965348;28;20225;-72
2021/04/05 05:50:45;;;;;;;1.33;1.00;;;;;;;4.28;100.00;99281.00;4943289;28;20229;-69
2021/04/05 05:53:46;;;;;;;1.87;1.07;;;;;;;4.27;100.00;99276.72;4957668;28;20661;-69
2021/04/05 05:56:52;;;;;;;2.03;1.00;;;;;;;4.35;100.00;99289.63;4929623;28;20222;-70
2021/04/05 05:59:32;;;;;;;0.90;0.60;;;;;;;4.34;100.00;99296.06;4953646;28;20187;-69
2021/04/05 06:02:19;;;;;;;1.60;0.93;;;;;;;4.41;100.00;99304.66;4948687;28;20234;-70
2021/04/05 06:04:51;;;;;;;0.83;0.70;;;;;;;4.24;100.00;99314.03;4966699;28;20226;-70
2021/04/05 06:07:50;;;;;;;1.23;0.70;;;;;;;4.31;100.00;99304.66;4970930;28;20552;-70
2021/04/05 06:10:39;;;;;;;1.70;0.70;;;;;;;4.35;100.00;99303.06;4971048;28;20189;-72
2021/04/05 06:13:07;;;;;;;2.47;0.90;;;;;;;4.15;100.00;99304.06;4955914;28;20193;-71
2021/04/05 06:16:08;;;;;;;1.27;0.77;;;;;;;4.27;100.00;99297.41;4969392;28;20346;-70
2021/04/05 06:18:43;;;;;;;2.00;0.90;;;;;;;4.41;100.00;99293.13;4929391;28;20206;-70
2021/04/05 06:21:23;;;;;;;3.73;0.90;;;;;;;4.34;100.00;99298.75;4969587;28;20585;-70
2021/04/05 06:23:53;;;;;;;2.07;0.77;;;;;;;4.03;100.00;99307.00;4938985;28;20190;-70
2021/04/05 06:26:49;;;;;;;1.70;0.70;;;;;;;4.22;100.00;99295.50;4964676;28;20270;-70
2021/04/05 06:29:28;;;;;;;2.40;1.00;;;;;;;4.26;100.00;99301.94;4971269;28;20187;-70
2021/04/05 06:32:05;;;;;;;2.37;0.90;;;;;;;4.37;100.00;99300.09;4954764;28;20236;-73
2021/04/05 06:34:33;;;;;;;2.03;0.93;;;;;;;4.43;100.00;99294.50;4970120;28;20660;-72
2021/04/05 06:37:21;;;;;;;2.07;0.90;;;;;;;4.26;100.00;99298.47;4969697;28;20237;-72
2021/04/05 06:39:49;;;;;;;2.47;0.80;;;;;;;4.20;100.00;99303.00;4971080;28;20266;-70
2021/04/05 06:42:36;;;;;;;2.23;0.70;;;;;;;4.32;100.00;99295.53;4947488;28;20229;-71
2021/04/05 06:45:29;;;;;;;3.70;0.90;;;;;;;4.10;100.00;99302.16;4965526;28;20225;-70
2021/04/05 06:48:15;;;;;;;2.33;0.87;;;;;;;3.91;100.00;99314.47;4961195;28;20194;-71
2021/04/05 06:51:16;;;;;;;1.50;0.70;;;;;;;3.81;100.00;99340.47;4976043;28;20248;-71
2021/04/05 06:53:53;;;;;;;2.73;0.93;;;;;;;3.74;100.00;99339.09;4946624;28;20218;-74
2021/04/05 06:56:44;;;;;;;5.87;0.90;;;;;;;3.67;100.00;99351.94;4948194;28;20284;-72
2021/04/05 06:59:24;;;;;;;5.00;1.13;;;;;;;3.69;100.00;99365.91;4950479;29;20190;-72
2021/04/05 07:02:22;;;;;;;4.00;1.00;;;;;;;3.69;100.00;99347.09;4963625;28;20218;-72
2021/04/05 07:05:36;;;;;;;6.97;1.20;;;;;;;3.81;100.00;99345.84;4929574;28;20712;-71
2021/04/05 07:08:17;;;;;;;5.80;1.13;;;;;;;3.94;100.00;99334.63;4932685;29;20305;-72
2021/04/05 07:10:51;;;;;;;3.73;0.90;;;;;;;3.91;100.00;99357.41;4941977;28;20376;-72
2021/04/05 07:13:29;;;;;;;6.60;1.07;;;;;;;3.91;100.00;99338.63;4943899;28;20190;-70
2021/04/05 07:16:10;;;;;;;5.33;1.00;;;;;;;3.80;100.00;99338.84;4957476;28;20228;-71
2021/04/05 07:19:13;;;;;;;6.37;3.73;;;;;;;4.16;100.00;99337.91;4965107;28;20196;-71
2021/04/05 07:21:54;;;;;;;6.57;1.30;;;;;;;3.79;100.00;99331.03;4955829;28;20226;-72
2021/04/05 07:24:38;;;;;;;3.63;0.93;;;;;;;4.03;100.00;99327.66;4977723;28;20206;-71
2021/04/05 07:27:24;;;;;;;4.47;1.07;;;;;;;3.91;100.00;99335.94;4942501;29;20230;-75
2021/04/05 07:30:08;;;;;;;4.43;1.10;;;;;;;3.86;100.00;99340.47;4943977;28;20194;-72
2021/04/05 07:33:02;;;;;;;7.13;1.20;;;;;;;4.25;100.00;99345.22;4966808;28;20283;-71
2021/04/05 07:35:33;;;;;;;3.80;1.20;;;;;;;4.02;100.00;99347.53;4971807;28;20237;-70
2021/04/05 07:38:20;;;;;;;5.37;1.07;;;;;;;4.18;100.00;99346.53;4929880;28;20413;-71
2021/04/05 07:40:53;;;;;;;6.70;1.20;;;;;;;4.17;100.00;99351.09;4938920;29;20234;-70
2021/04/05 07:43:42;;;;;;;8.83;1.57;;;;;;;4.32;100.00;99354.66;4955689;29;20270;-72
2021/04/05 07:46:35;;;;;;;6.27;1.07;;;;;;;4.07;100.00;99361.00;4938376;29;20230;-71
2021/04/05 07:49:00;;;;;;;8.90;1.40;;;;;;;4.07;100.00;99355.63;4937658;28;20201;-73
2021/04/05 07:51:44;;;;;;;6.00;1.30;;;;;;;4.11;100.00;99354.84;4956317;28;20226;-70
2021/04/05 07:54:09;;;;;;;5.53;1.27;;;;;;;4.08;100.00;99378.72;4943899;28;20194;-70
2021/04/05 07:57:03;;;;;;;7.87;1.30;;;;;;;3.99;100.00;99374.91;4954146;28;20223;-72
2021/04/05 07:59:34;;;;;;;5.90;1.13;;;;;;;3.77;100.00;99374.25;4954328;28;20244;-72
2021/04/05 08:02:25;;;;;;;6.47;1.10;;;;;;;3.81;100.00;99382.59;4950463;28;20324;-71
2021/04/05 08:05:48;;;;;;;8.03;1.47;;;;;;;3.85;100.00;99384.53;4953327;28;20274;-72
2021/04/05 08:08:26;;;;;;;8.53;1.77;;;;;;;3.90;100.00;99371.09;4878088;29;20265;-71
2021/04/05 08:11:09;;;;;;;7.97;1.83;;;;;;;3.78;100.00;99389.31;4863116;29;20233;-70
2021/04/05 08:13:41;;;;;;;5.20;1.37;;;;;;;3.91;100.00;99380.78;4929644;28;20261;-71
2021/04/05 08:16:24;;;;;;;5.97;1.57;;;;;;;3.88;100.00;99367.88;4951162;28;20222;-70
2021/04/05 08:19:05;;;;;;;9.53;1.60;;;;;;;4.13;100.00;99382.22;4965156;28;20198;-72
2021/04/05 08:21:32;;;;;;;3.03;1.23;;;;;;;3.74;100.00;99385.53;4954415;28;20218;-72
2021/04/05 08:24:34;;;;;;;6.80;1.80;;;;;;;3.99;100.00;99374.91;4938723;28;20189;-70
2021/04/05 08:27:20;;;;;;;7.83;1.63;;;;;;;4.02;100.00;99371.72;4968717;28;20233;-71
2021/04/05 08:30:07;;;;;;;6.00;1.40;;;;;;;3.93;100.00;99400.13;4953132;28;20198;-71
2021/04/05 08:32:57;;;;;;;6.37;1.60;;;;;;;4.16;100.00;99397.00;4938768;28;20222;-73
2021/04/05 08:35:47;;;;;;;4.60;1.30;;;;;;;3.11;100.00;99461.75;4954893;28;20234;-71
2021/04/05 08:38:18;;;;;;;6.10;0.83;;;;;;;2.83;100.00;99455.81;4952339;29;20187;-71
2021/04/05 08:41:02;;;;;;;4.00;0.70;;;;;;;2.10;100.00;99448.50;4963308;28;20214;-72
2021/04/05 08:43:46;;;;;;;2.00;0.60;;;;;;;2.26;100.00;99431.59;4971373;28;20867;-71
2021/04/05 08:46:14;;;;;;;2.23;0.53;;;;;;;2.53;100.00;99430.59;4982305;28;20222;-72
2021/04/05 08:48:44;;;;;;;1.97;0.60;;;;;;;2.59;100.00;99421.53;4964745;28;20183;-71
2021/04/05 08:51:11;;;;;;;2.93;1.00;;;;;;;3.17;100.00;99433.94;4947650;28;20324;-70
2021/04/05 08:53:44;;;;;;;2.67;1.37;;;;;;;3.43;100.00;99432.00;4941154;28;20233;-72
2021/04/05 08:56:12;;;;;;;5.50;2.07;;;;;;;3.25;100.00;99425.41;4932780;29;20660;-71
2021/04/05 08:58:44;;;;;;;3.40;1.30;;;;;;;3.34;100.00;99434.59;4975237;28;20191;-71
2021/04/05 09:01:12;;;;;;;2.30;0.80;;;;;;;3.26;100.00;99432.38;4972165;28;20585;-73
2021/04/05 09:03:38;;;;;;;3.50;0.63;;;;;;;3.64;100.00;99424.91;4968011;28;20187;-68
2021/04/05 09:06:13;;;;;;;1.57;0.70;;;;;;;3.45;100.00;99416.44;4938082;28;20222;-70
2021/04/05 09:08:41;;;;;;;3.07;1.10;;;;;;;3.87;100.00;99430.72;4967919;28;20213;-71
2021/04/05 09:11:06;;;;;;;3.53;1.00;;;;;;;4.07;100.00;99430.84;4930617;28;20600;-70
2021/04/05 09:13:33;;;;;;;5.70;2.17;;;;;;;4.04;100.00;99425.97;4927383;28;20179;-71
2021/04/05 09:16:35;;;;;;;4.53;1.47;;;;;;;4.44;100.00;99422.41;4942647;28;20237;-69
2021/04/05 09:19:27;;;;;;;2.17;1.13;;;;;;;4.28;100.00;99444.88;4969974;28;20266;-71
2021/04/05 09:22:26;;;;;;;3.60;0.80;;;;;;;4.18;100.00;99443.25;4949209;28;20301;-70
2021/04/05 09:25:01;;;;;;;2.77;0.77;;;;;;;3.59;100.00;99463.25;4962516;28;20212;-70
2021/04/05 09:28:01;;;;;;;3.30;0.73;;;;;;;3.14;100.00;99494.22;4966656;28;20359;-71
2021/04/05 09:31:00;;;;;;;2.60;0.57;;;;;;;2.32;100.00;99474.22;4954404;28;20234;-70
2021/04/05 09:33:57;;;;;;;3.93;0.83;;;;;;;2.01;100.00;99496.28;4969895;28;20281;-71
2021/04/05 09:37:14;;;;;;;3.20;0.90;;;;;;;1.85;100.00;99511.56;4953655;28;20226;-69
2021/04/05 09:39:52;;;;;;;2.23;1.20;;;;;;;2.02;100.00;99508.63;4954007;28;20206;-70
2021/04/05 09:42:39;;;;;;;2.83;0.90;;;;;;;2.18;100.00;99513.16;4936757;28;20317;-70
2021/04/05 09:45:14;;;;;;;1.57;0.90;;;;;;;2.06;100.00;99520.47;4953147;28;20222;-71
2021/04/05 09:47:46;;;;;;;8.37;4.23;;;;;;;2.09;100.00;99530.69;4969803;28;20186;-72
2021/04/05 09:50:45;;;;;;;1.60;0.67;;;;;;;2.05;100.00;99536.75;4957973;28;20254;-69
2021/04/05 09:53:16;;;;;;;1.07;0.50;;;;;;;2.19;100.00;99535.38;4924691;29;20657;-70
2021/04/05 09:55:44;;;;;;;2.87;1.20;;;;;;;2.46;100.00;99537.09;4959972;28;20603;-71
2021/04/05 09:58:10;;;;;;;1.03;0.60;;;;;;;2.60;100.00;99549.06;4955705;28;20191;-72
2021/04/05 10:00:39;;;;;;;4.17;0.90;;;;;;;2.42;100.00;99541.34;4962013;28;20218;-74
2021/04/05 10:03:06;;;;;;;4.17;1.10;;;;;;;2.49;100.00;99536.59;4937086;28;20186;-71
2021/04/05 10:05:41;;;;;;;6.40;1.03;;;;;;;2.76;100.00;99543.66;4946244;28;20894;-69
2021/04/05 10:08:07;;;;;;;5.30;1.20;;;;;;;2.71;100.00;99543.56;4971314;28;20186;-70
2021/04/05 10:10:32;;;;;;;5.07;1.20;;;;;;;2.84;100.00;99540.53;4945523;28;20596;-71
2021/04/05 10:12:58;;;;;;;5.57;1.53;;;;;;;2.82;100.00;99540.81;4931013;28;20186;-70
2021/04/05 10:15:27;;;;;;;6.53;1.30;;;;;;;2.62;100.00;99546.94;4936762;28;20233;-70
2021/04/05 10:17:59;;;;;;;7.37;1.67;;;;;;;2.97;100.00;99540.97;4952773;28;20341;-72
2021/04/05 10:20:27;;;;;;;4.67;1.23;;;;;;;3.19;100.00;99531.03;4923618;28;20183;-71
2021/04/05 10:22:55;;;;;;;5.87;1.20;;;;;;;3.29;100.00;99534.59;4919250;29;20861;-71
2021/04/05 10:25:25;;;;;;;4.87;1.07;;;;;;;3.26;100.00;99528.94;4964236;28;20218;-71
2021/04/05 10:27:57;;;;;;;10.17;1.30;;;;;;;3.59;100.00;99535.72;4958654;28;20194;-71
2021/04/05 10:30:31;;;;;;;3.93;1.30;;;;;;;4.17;100.00;99533.75;4952259;28;20183;-70
2021/04/05 10:33:00;;;;;;;7.33;1.30;;;;;;;4.18;100.00;99530.03;4964290;28;20205;-71
2021/04/05 10:35:29;;;;;;;5.13;1.47;;;;;;;3.42;100.00;99560.22;4960045;28;20225;-70
2021/04/05 10:37:55;;;;;;;3.30;0.90;;;;;;;2.23;100.00;99590.84;4953250;28;20587;-71
2021/04/05 10:40:21;;;;;;;10.17;2.23;;;;;;;1.80;100.00;99594.47;4954308;28;20241;-71
2021/04/05 10:42:52;;;;;;;5.23;1.30;;;;;;;1.72;100.00;99601.00;4950658;28;20271;-69
2021/04/05 10:45:20;;;;;;;7.80;1.30;;;;;;;1.77;100.00;99585.03;4943903;28;20257;-69
2021/04/05 10:48:07;;;;;;;5.37;1.60;;;;;;;2.42;100.00;99584.19;4953317;29;20214;-71
2021/04/05 10:50:34;;;;;;;5.37;1.77;;;;;;;2.72;100.00;99586.22;4963959;28;20606;-70
2021/04/05 10:53:06;;;;;;;6.93;1.40;;;;;;;2.86;100.00;99595.53;4952126;28;20669;-71
2021/04/05 10:55:37;;;;;;;3.37;1.27;;;;;;;3.16;100.00;99583.28;4951555;28;20221;-70
2021/04/05 10:58:03;;;;;;;4.77;1.80;;;;;;;3.22;100.00;99578.78;4938520;28;20178;-72
2021/04/05 11:00:39;;;;;;;8.37;2.00;;;;;;;3.05;100.00;99586.09;4962534;28;20226;-71
2021/04/05 11:03:13;;;;;;;4.57;1.30;;;;;;;3.15;100.00;99575.47;4961617;28;20206;-72
2021/04/05 11:05:38;;;;;;;5.93;1.50;;;;;;;3.07;100.00;99581.31;4941973;28;20234;-70
2021/04/05 11:08:04;;;;;;;8.47;1.57;;;;;;;3.00;100.00;99575.31;4945914;28;20197;-71
2021/04/05 11:10:33;;;;;;;5.47;1.53;;;;;;;3.17;97.76;99568.81;4952156;28;20249;-70
2021/04/05 11:13:06;;;;;;;5.07;1.30;;;;;;;3.54;100.00;99578.63;4954853;28;20671;-70
2021/04/05 11:15:39;;;;;;;5.10;1.43;;;;;;;3.91;92.37;99560.69;4952837;28;20309;-70
2021/04/05 11:18:05;;;;;;;4.90;1.30;;;;;;;3.90;94.21;99564.44;4934892;29;20182;-69
2021/04/05 11:20:34;;;;;;;5.40;1.50;;;;;;;4.08;89.47;99564.84;4933568;28;20314;-70
2021/04/05 11:23:09;;;;;;;6.17;1.47;;;;;;;4.34;85.09;99572.84;4926291;28;20572;-68
2021/04/05 11:25:38;;;;;;;5.57;1.40;;;;;;;4.54;79.44;99561.41;4952101;28;20316;-69
2021/04/05 11:28:16;;;;;;;7.97;1.63;;;;;;;4.90;82.58;99546.00;4949161;28;20187;-69
2021/04/05 11:30:44;;;;;;;5.07;1.30;;;;;;;5.13;80.76;99577.84;4952070;28;20723;-71
2021/04/05 11:33:16;;;;;;;3.47;1.00;;;;;;;3.74;75.22;99619.09;4941176;28;20228;-70
2021/04/05 11:35:42;;;;;;;5.70;1.07;;;;;;;3.62;83.59;99599.63;4937480;28;20245;-70
2021/04/05 11:38:11;;;;;;;3.40;0.90;;;;;;;2.99;82.82;99632.69;4952768;28;20902;-70
2021/04/05 11:40:36;;;;;;;4.50;1.23;;;;;;;2.71;87.18;99627.50;4920182;28;20218;-70
2021/04/05 11:43:02;;;;;;;5.87;1.20;;;;;;;2.39;87.02;99632.91;4971368;28;20561;-71
2021/04/05 11:45:32;;;;;;;8.10;1.30;;;;;;;2.24;84.74;99624.63;4936680;28;20341;-71
2021/04/05 11:47:59;;;;;;;5.07;1.00;;;;;;;2.46;80.21;99614.78;4970366;28;20644;-70
2021/04/05 11:50:27;;;;;;;7.03;1.40;;;;;;;2.77;83.09;99609.63;4954789;28;20226;-70
2021/04/05 11:53:02;;;;;;;4.37;1.33;;;;;;;2.90;77.69;99618.09;4954897;28;20197;-69
2021/04/05 11:55:32;;;;;;;5.73;1.50;;;;;;;3.00;74.35;99620.09;4973386;28;20324;-71
2021/04/05 11:58:01;;;;;;;5.17;1.30;;;;;;;3.15;77.40;99629.13;4954249;28;20203;-69
2021/04/05 12:00:51;;;;;;;5.20;1.20;;;;;;;3.34;72.87;99617.03;4966283;28;20207;-71